createdAt,value
2022-08-28T00:00:16.247Z,17.60
2022-08-28T00:04:00.141Z,17.60
2022-08-28T00:07:46.977Z,17.50
2022-08-28T00:11:29.681Z,17.50
2022-08-28T00:15:16.299Z,17.50
2022-08-28T00:18:58.296Z,17.50
2022-08-28T00:22:40.576Z,17.50
2022-08-28T00:26:41.670Z,17.50
2022-08-28T00:30:25.201Z,17.50
2022-08-28T00:34:09.504Z,17.50
2022-08-28T00:37:52.760Z,17.40
2022-08-28T00:41:36.446Z,17.40
2022-08-28T00:45:19.742Z,17.30
2022-08-28T00:49:01.697Z,17.10
2022-08-28T00:52:46.670Z,17.10
2022-08-28T00:56:30.417Z,16.90
2022-08-28T01:00:17.298Z,16.90
2022-08-28T01:03:59.225Z,16.80
2022-08-28T01:07:42.053Z,16.70
2022-08-28T01:11:24.367Z,16.60
2022-08-28T01:15:13.449Z,16.50
2022-08-28T01:18:57.485Z,16.50
2022-08-28T01:23:07.140Z,16.40
2022-08-28T01:26:49.217Z,16.40
2022-08-28T01:30:32.502Z,16.30
2022-08-28T01:34:14.982Z,16.20
2022-08-28T01:37:57.407Z,16.20
2022-08-28T01:41:48.181Z,16.10
2022-08-28T01:45:31.461Z,16.00
2022-08-28T01:49:13.825Z,16.00
2022-08-28T01:52:55.787Z,16.00
2022-08-28T01:56:39.111Z,15.80
2022-08-28T02:00:26.957Z,15.80
2022-08-28T02:04:09.515Z,15.70
2022-08-28T02:07:52.616Z,15.60
2022-08-28T02:11:35.108Z,15.60
2022-08-28T02:15:17.366Z,15.50
2022-08-28T02:19:01.440Z,15.50
2022-08-28T02:22:43.341Z,15.40
2022-08-28T02:26:25.448Z,15.30
2022-08-28T02:30:09.973Z,15.20
2022-08-28T02:33:52.008Z,15.20
2022-08-28T02:37:33.888Z,15.20
2022-08-28T02:41:15.926Z,15.10
2022-08-28T02:44:59.573Z,15.10
2022-08-28T02:48:41.561Z,15.10
2022-08-28T02:52:24.646Z,15.10
2022-08-28T02:56:07.410Z,15.00
2022-08-28T02:59:49.387Z,15.00
2022-08-28T03:03:32.646Z,15.00
2022-08-28T03:07:15.642Z,15.00
2022-08-28T03:10:58.047Z,15.00
2022-08-28T03:14:40.528Z,15.00
2022-08-28T03:18:22.639Z,15.00
2022-08-28T03:22:04.580Z,14.90
2022-08-28T03:25:46.619Z,15.00
2022-08-28T03:29:28.553Z,14.90
2022-08-28T03:33:10.682Z,15.00
2022-08-28T03:36:52.549Z,14.90
2022-08-28T03:40:38.652Z,14.90
2022-08-28T03:44:20.562Z,14.90
2022-08-28T03:48:04.322Z,14.90
2022-08-28T03:51:46.409Z,14.90
2022-08-28T03:55:28.977Z,14.90
2022-08-28T03:59:10.886Z,14.90
2022-08-28T04:02:53.602Z,14.80
2022-08-28T04:06:36.144Z,14.80
2022-08-28T04:10:18.298Z,14.70
2022-08-28T04:14:00.163Z,14.70
2022-08-28T04:17:42.068Z,14.60
2022-08-28T04:21:26.238Z,14.60
2022-08-28T04:25:08.962Z,14.60
2022-08-28T04:28:54.792Z,14.60
2022-08-28T04:32:38.719Z,14.60
2022-08-28T04:36:20.592Z,14.50
2022-08-28T04:40:08.722Z,14.50
2022-08-28T04:43:52.802Z,14.50
2022-08-28T04:47:39.075Z,14.50
2022-08-28T04:51:21.075Z,14.50
2022-08-28T04:55:03.904Z,14.40
2022-08-28T04:58:46.085Z,14.40
2022-08-28T05:02:27.991Z,14.40
2022-08-28T05:06:12.279Z,14.30
2022-08-28T05:09:54.717Z,14.30
2022-08-28T05:13:37.375Z,14.30
2022-08-28T05:17:19.272Z,14.30
2022-08-28T05:21:01.932Z,14.20
2022-08-28T05:24:44.551Z,14.20
2022-08-28T05:28:26.603Z,14.20
2022-08-28T05:32:09.502Z,14.20
2022-08-28T05:35:51.375Z,14.20
2022-08-28T05:39:33.326Z,14.20
2022-08-28T05:43:16.785Z,14.30
2022-08-28T05:46:58.694Z,14.30
2022-08-28T05:50:43.047Z,14.40
2022-08-28T05:54:29.430Z,14.40
2022-08-28T05:58:29.119Z,14.40
2022-08-28T06:02:11.337Z,14.50
2022-08-28T06:05:56.376Z,14.60
2022-08-28T06:09:38.524Z,14.60
2022-08-28T06:13:20.617Z,14.70
2022-08-28T06:17:04.033Z,14.80
2022-08-28T06:21:05.163Z,14.80
2022-08-28T06:24:47.076Z,14.90
2022-08-28T06:28:29.026Z,15.00
2022-08-28T06:32:22.954Z,15.10
2022-08-28T06:40:16.394Z,15.90
2022-08-28T06:44:44.096Z,16.20
2022-08-28T06:52:39.348Z,17.00
2022-08-28T06:57:21.045Z,17.40
2022-08-28T07:01:37.772Z,17.70
2022-08-28T07:05:19.916Z,18.10
2022-08-28T07:09:34.767Z,18.50
2022-08-28T07:13:40.855Z,18.70
2022-08-28T07:22:07.445Z,19.60
2022-08-28T07:26:26.329Z,20.30
2022-08-28T07:34:19.693Z,21.10
2022-08-28T07:46:44.562Z,22.00
2022-08-28T07:54:40.507Z,22.90
2022-08-28T07:59:04.352Z,23.10
2022-08-28T08:02:46.526Z,23.30
2022-08-28T08:07:13.220Z,23.50
2022-08-28T08:11:27.997Z,23.80
2022-08-28T08:19:34.855Z,25.10
2022-08-28T08:23:51.950Z,26.10
2022-08-28T08:31:47.333Z,28.10
2022-08-28T08:39:42.084Z,29.60
2022-08-28T08:44:09.949Z,29.60
2022-08-28T08:52:03.100Z,29.80
2022-08-28T08:56:34.843Z,29.00
2022-08-28T09:01:08.182Z,28.00
2022-08-28T09:05:42.619Z,27.10
2022-08-28T09:10:08.955Z,26.10
2022-08-28T09:32:41.009Z,27.10
2022-08-28T09:37:13.875Z,26.80
2022-08-28T09:41:44.040Z,26.30
2022-08-28T09:46:14.484Z,26.80
2022-08-28T09:50:44.490Z,27.10
2022-08-28T10:04:22.527Z,26.70
2022-08-28T10:53:49.767Z,25.80
2022-08-28T11:20:50.360Z,24.30
2022-08-28T11:37:57.231Z,23.60
2022-08-28T11:46:55.393Z,23.40
2022-08-28T11:51:16.563Z,23.40
2022-08-28T11:55:46.500Z,23.30
2022-08-28T12:17:20.337Z,23.30
2022-08-28T12:47:47.439Z,23.50
2022-08-28T12:52:04.103Z,23.70
2022-08-28T13:09:03.506Z,24.50
2022-08-28T13:17:59.760Z,24.70
2022-08-28T13:26:58.774Z,24.70
2022-08-28T13:35:58.853Z,24.50
2022-08-28T13:44:59.863Z,24.60
2022-08-28T13:54:00.880Z,24.60
2022-08-28T13:58:32.873Z,24.60
2022-08-28T14:03:02.924Z,24.70
2022-08-28T14:12:03.947Z,24.70
2022-08-28T14:16:37.853Z,24.70
2022-08-28T14:34:47.709Z,25.10
2022-08-28T14:51:27.199Z,25.10
2022-08-28T15:00:30.066Z,25.20
2022-08-28T15:14:01.189Z,24.90
2022-08-28T15:18:31.124Z,24.80
2022-08-28T15:27:31.186Z,24.60
2022-08-28T15:32:02.220Z,24.50
2022-08-28T15:36:32.176Z,24.50
2022-08-28T15:41:03.222Z,24.50
2022-08-28T15:45:33.438Z,24.60
2022-08-28T15:50:03.242Z,24.60
2022-08-28T15:54:34.298Z,24.70
2022-08-28T15:59:04.269Z,24.60
2022-08-28T16:03:34.275Z,24.60
2022-08-28T16:08:05.290Z,24.40
2022-08-28T16:20:26.691Z,24.10
2022-08-28T16:32:49.670Z,23.40
2022-08-28T16:40:47.136Z,23.20
2022-08-28T16:45:13.660Z,23.20
2022-08-28T16:49:45.726Z,23.20
2022-08-28T16:54:15.707Z,23.20
2022-08-28T16:58:45.788Z,23.20
2022-08-28T17:07:45.901Z,23.30
2022-08-28T17:30:22.672Z,23.20
2022-08-28T17:34:49.850Z,23.20
2022-08-28T17:39:20.064Z,23.20
2022-08-28T17:43:49.891Z,23.20
2022-08-28T17:52:50.099Z,23.20
2022-08-28T17:57:19.349Z,23.10
2022-08-28T18:06:20.035Z,22.90
2022-08-28T18:15:22.461Z,22.80
2022-08-28T18:28:53.154Z,22.70
2022-08-28T18:33:23.032Z,22.60
2022-08-28T18:42:01.208Z,22.60
2022-08-28T18:45:47.526Z,22.50
2022-08-28T18:49:51.357Z,22.40
2022-08-28T18:53:42.353Z,22.40
2022-08-28T18:57:45.594Z,22.30
2022-08-28T19:01:29.536Z,22.30
2022-08-28T19:05:12.758Z,22.20
2022-08-28T19:08:54.675Z,22.10
2022-08-28T19:12:37.361Z,22.00
2022-08-28T19:16:20.621Z,22.00
2022-08-28T19:20:09.672Z,21.90
2022-08-28T19:23:56.036Z,21.90
2022-08-28T19:27:39.562Z,21.80
2022-08-28T19:31:23.229Z,21.80
2022-08-28T19:35:05.635Z,21.70
2022-08-28T19:38:47.949Z,21.60
2022-08-28T19:42:29.883Z,21.50
2022-08-28T19:46:19.274Z,21.50
2022-08-28T19:50:02.262Z,21.40
2022-08-28T19:53:44.154Z,21.40
2022-08-28T19:57:26.290Z,21.40
2022-08-28T20:01:08.233Z,21.30
2022-08-28T20:04:50.270Z,21.20
2022-08-28T20:08:32.714Z,21.20
2022-08-28T20:12:14.791Z,21.10
2022-08-28T20:15:56.836Z,21.10
2022-08-28T20:19:38.793Z,21.00
2022-08-28T20:23:20.708Z,20.90
2022-08-28T20:27:03.106Z,20.80
2022-08-28T20:30:46.878Z,20.80
2022-08-28T20:34:29.035Z,20.70
2022-08-28T20:38:11.500Z,20.70
2022-08-28T20:41:53.524Z,20.70
2022-08-28T20:45:35.390Z,20.60
2022-08-28T20:49:17.459Z,20.50
2022-08-28T20:53:02.662Z,20.50
2022-08-28T20:56:44.538Z,20.50
2022-08-28T21:00:26.628Z,20.40
2022-08-28T21:04:08.791Z,20.30
2022-08-28T21:07:51.060Z,20.30
2022-08-28T21:11:32.971Z,20.30
2022-08-28T21:15:14.909Z,20.20
2022-08-28T21:19:15.118Z,20.10
2022-08-28T21:22:58.220Z,20.10
2022-08-28T21:26:45.289Z,20.00
2022-08-28T21:30:29.524Z,19.90
2022-08-28T21:34:12.297Z,19.80
2022-08-28T21:37:54.183Z,19.70
2022-08-28T21:41:36.699Z,19.60
2022-08-28T21:45:18.605Z,19.50
2022-08-28T21:49:01.127Z,19.40
2022-08-28T21:52:43.218Z,19.30
2022-08-28T21:56:27.865Z,19.30
2022-08-28T22:00:15.895Z,19.20
2022-08-28T22:03:57.865Z,19.10
2022-08-28T22:07:40.504Z,19.00
2022-08-28T22:11:25.132Z,19.00
2022-08-28T22:15:07.608Z,18.90
2022-08-28T22:18:49.591Z,18.90
2022-08-28T22:22:50.232Z,18.80
2022-08-28T22:26:32.229Z,18.80
2022-08-28T22:30:14.494Z,18.70
2022-08-28T22:33:56.643Z,18.60
2022-08-28T22:37:38.619Z,18.60
2022-08-28T22:41:21.389Z,18.60
2022-08-28T22:45:06.880Z,18.50
2022-08-28T22:48:49.155Z,18.40
2022-08-28T22:52:31.556Z,18.40
2022-08-28T22:56:14.790Z,18.30
2022-08-28T23:00:01.417Z,18.30
2022-08-28T23:03:43.746Z,18.30
2022-08-28T23:07:25.670Z,18.20
2022-08-28T23:11:08.386Z,18.20
2022-08-28T23:14:50.691Z,18.10
2022-08-28T23:18:46.352Z,18.10
2022-08-28T23:22:34.984Z,18.10
2022-08-28T23:26:17.032Z,18.00
2022-08-28T23:29:58.909Z,18.00
2022-08-28T23:33:41.333Z,18.00
2022-08-28T23:37:23.280Z,17.90
2022-08-28T23:41:05.485Z,17.90
2022-08-28T23:44:47.367Z,17.90
2022-08-28T23:48:29.943Z,17.80
2022-08-28T23:52:12.184Z,17.80
2022-08-28T23:55:54.216Z,17.80
2022-08-28T23:59:37.138Z,17.70
